Time;durP1;ratioP1;P1;durP2;ratioP2;P2;SDS_P1;SDS_P2;PMS_P1;PMS_P2;Temp;Humidity;BMP_temperature;BMP_pressure;BME280_temperature;BME280_humidity;BME280_pressure;Samples;Min_cycle;Max_cycle;Signal;HPM_P1;HPM_P2
2022/09/14 00:00:56;;;;;;;5.53;1.88;;;15.00;1.00;;;;;;4950512;28;20049;-85
2022/09/14 00:03:22;;;;;;;10.52;2.35;;;14.90;1.00;;;;;;4965472;28;20085;-85
2022/09/14 00:05:48;;;;;;;8.32;2.10;;;15.20;1.00;;;;;;4962433;28;20585;-85
2022/09/14 00:08:15;;;;;;;8.20;2.30;;;15.00;1.00;;;;;;4950084;28;20038;-84
2022/09/14 00:10:45;;;;;;;6.50;1.85;;;;;;;;;;4965289;28;20120;-86
2022/09/14 00:13:13;;;;;;;6.45;2.17;;;15.50;1.00;;;;;;4949994;28;20098;-83
2022/09/14 00:15:40;;;;;;;6.75;1.95;;;15.00;1.00;;;;;;4950420;28;20042;-85
2022/09/14 00:18:08;;;;;;;7.72;2.25;;;15.50;1.00;;;;;;4950307;28;20084;-84
2022/09/14 00:20:35;;;;;;;6.43;1.80;;;15.10;1.00;;;;;;4949973;28;20097;-83
2022/09/14 00:23:01;;;;;;;7.95;2.20;;;15.10;1.00;;;;;;4983690;28;20414;-85
2022/09/14 00:25:28;;;;;;;7.28;2.47;;;;;;;;;;4943291;28;20034;-85
2022/09/14 00:27:54;;;;;;;11.02;2.00;;;15.80;1.00;;;;;;4977079;28;20096;-85
2022/09/14 00:30:22;;;;;;;6.72;1.70;;;15.10;1.00;;;;;;4949914;28;20053;-83
2022/09/14 00:32:48;;;;;;;6.60;1.95;;;15.00;1.00;;;;;;4949686;28;20101;-84
2022/09/14 00:35:14;;;;;;;7.43;1.90;;;15.00;1.00;;;;;;4983345;28;20512;-83
2022/09/14 00:37:39;;;;;;;7.93;2.50;;;16.10;1.00;;;;;;4948830;28;20145;-85
2022/09/14 00:40:06;;;;;;;9.50;2.08;;;15.30;1.00;;;;;;4983211;28;20034;-86
2022/09/14 00:42:31;;;;;;;6.22;2.00;;;15.30;1.00;;;;;;4974226;28;20046;-85
2022/09/14 00:45:01;;;;;;;6.53;1.63;;;14.90;1.00;;;;;;4955174;28;20429;-86
2022/09/14 00:47:29;;;;;;;7.78;2.00;;;15.20;1.00;;;;;;4965987;28;20457;-85
2022/09/14 00:49:55;;;;;;;6.90;2.22;;;14.90;1.00;;;;;;4965965;28;20161;-85
2022/09/14 00:52:31;;;;;;;8.68;1.73;;;15.40;1.00;;;;;;4966797;28;20046;-83
2022/09/14 00:55:00;;;;;;;7.75;1.83;;;15.60;1.00;;;;;;4943574;28;20038;-86
2022/09/14 00:57:28;;;;;;;7.55;1.98;;;15.70;1.00;;;;;;4948584;28;20076;-85
2022/09/14 00:59:55;;;;;;;5.03;2.08;;;15.10;1.00;;;;;;4942363;28;20497;-85
2022/09/14 01:02:22;;;;;;;9.15;1.98;;;15.30;1.00;;;;;;4936941;28;20047;-85
2022/09/14 01:04:49;;;;;;;7.55;2.20;;;15.20;1.00;;;;;;4978586;28;20049;-86
2022/09/14 01:07:41;;;;;;;6.38;1.92;;;16.10;1.00;;;;;;4966625;28;20077;-84
2022/09/14 01:10:13;;;;;;;7.32;1.98;;;15.10;1.00;;;;;;4975012;28;20046;-85
2022/09/14 01:12:52;;;;;;;6.50;1.63;;;15.00;1.00;;;;;;4978829;28;20051;-86
2022/09/14 01:15:44;;;;;;;7.07;1.60;;;14.90;1.00;;;;;;4977164;28;20042;-87
2022/09/14 01:18:23;;;;;;;6.40;1.85;;;14.90;1.00;;;;;;4959606;28;20050;-84
2022/09/14 01:20:59;;;;;;;8.77;2.63;;;15.40;1.00;;;;;;4965034;28;20474;-84
2022/09/14 01:23:27;;;;;;;5.60;1.52;;;14.70;1.00;;;;;;4949665;28;20050;-85
2022/09/14 01:26:08;;;;;;;6.60;1.48;;;;;;;;;;4942450;28;20139;-84
2022/09/14 01:28:41;;;;;;;7.65;1.90;;;14.80;1.00;;;;;;4963297;28;20053;-85
2022/09/14 01:31:16;;;;;;;7.97;2.00;;;14.50;1.00;;;;;;4958973;28;20681;-86
2022/09/14 01:33:52;;;;;;;8.65;1.70;;;15.00;1.00;;;;;;4942741;28;20109;-85
2022/09/14 01:36:19;;;;;;;7.28;1.98;;;14.70;1.00;;;;;;4966371;28;20395;-85
2022/09/14 01:38:48;;;;;;;6.53;1.52;;;14.30;1.00;;;;;;4964075;28;20053;-86
2022/09/14 01:41:19;;;;;;;9.00;2.15;;;15.10;1.00;;;;;;4962604;28;20051;-83
2022/09/14 01:43:53;;;;;;;5.53;1.67;;;14.80;1.00;;;;;;4974438;28;20403;-86
2022/09/14 01:46:31;;;;;;;;;;;16.30;1.00;;;;;;4979806;28;20088;-85
2022/09/14 01:49:06;;;;;;;8.20;1.77;;;14.10;1.00;;;;;;4944069;28;19925;-86
2022/09/14 01:51:58;;;;;;;5.55;1.63;;;15.00;1.00;;;;;;4986961;28;20365;-86
2022/09/14 01:54:25;;;;;;;7.65;1.52;;;14.90;1.00;;;;;;4980076;28;20070;-85
2022/09/14 01:56:55;;;;;;;6.43;1.60;;;14.20;1.00;;;;;;4981766;28;20061;-84
2022/09/14 01:59:24;;;;;;;9.30;1.63;;;15.40;1.00;;;;;;4982956;28;20072;-85
2022/09/14 02:01:55;;;;;;;4.32;1.60;;;14.80;1.00;;;;;;4982855;28;20046;-86
2022/09/14 02:04:42;;;;;;;5.53;1.38;;;14.90;1.00;;;;;;4968394;28;20362;-86
2022/09/14 02:07:08;;;;;;;7.75;1.40;;;14.40;1.00;;;;;;4979926;28;20042;-86
2022/09/14 02:09:33;;;;;;;6.95;1.67;;;14.90;1.00;;;;;;4963573;28;20042;-86
2022/09/14 02:11:59;;;;;;;5.75;1.52;;;16.50;1.00;;;;;;4942584;28;20038;-87
2022/09/14 02:14:26;;;;;;;5.97;1.50;;;15.20;1.00;;;;;;4986031;28;20042;-86
2022/09/14 02:16:52;;;;;;;5.30;1.50;;;15.40;1.00;;;;;;4967940;28;20046;-84
2022/09/14 02:19:18;;;;;;;6.43;1.60;;;15.00;1.00;;;;;;4985409;28;20456;-86
2022/09/14 02:21:44;;;;;;;7.90;1.70;;;;;;;;;;5010345;23;20050;-65
2022/09/14 02:24:10;;;;;;;7.95;1.67;;;15.00;1.00;;;;;;5004654;28;20496;-65
2022/09/14 02:26:37;;;;;;;7.60;1.60;;;15.10;1.00;;;;;;5002981;28;20088;-65
2022/09/14 02:29:04;;;;;;;5.95;1.50;;;15.10;1.00;;;;;;4988377;28;20088;-65
2022/09/14 02:31:46;;;;;;;7.38;1.83;;;;;;;;;;4994153;28;20038;-65
2022/09/14 02:34:24;;;;;;;5.55;1.98;;;;;;;;;;4985418;28;20039;-65
2022/09/14 02:37:17;;;;;;;7.53;2.10;;;14.80;1.00;;;;;;4997146;28;20566;-65
2022/09/14 02:39:53;;;;;;;5.28;1.50;;;;;;;;;;4989523;28;20026;-65
2022/09/14 02:42:28;;;;;;;7.78;2.35;;;15.00;1.00;;;;;;4991355;28;20049;-65
2022/09/14 02:45:02;;;;;;;4.68;1.33;;;;;;;;;;4988863;28;20042;-64
2022/09/14 02:47:49;;;;;;;4.93;1.55;;;14.90;1.00;;;;;;4983272;28;20050;-65
2022/09/14 02:50:33;;;;;;;5.95;1.58;;;;;;;;;;4987523;28;20034;-65
2022/09/14 02:53:05;;;;;;;5.15;1.50;;;;;;;;;;4988810;28;20046;-64
2022/09/14 02:55:36;;;;;;;7.43;1.55;;;14.60;1.00;;;;;;4993255;28;20089;-65
2022/09/14 02:58:08;;;;;;;9.18;1.80;;;15.00;1.00;;;;;;4987816;28;20042;-65
2022/09/14 03:00:36;;;;;;;7.57;1.42;;;;;;;;;;4983115;28;20094;-65
2022/09/14 03:03:03;;;;;;;9.20;1.67;;;;;;;;;;4990490;28;20045;-65
2022/09/14 03:05:29;;;;;;;6.97;1.55;;;15.00;1.00;;;;;;4981485;28;20050;-64
2022/09/14 03:07:54;;;;;;;4.80;1.35;;;15.00;1.00;;;;;;4991963;28;20377;-64
2022/09/14 03:10:20;;;;;;;5.20;1.45;;;14.90;1.00;;;;;;4985308;28;20031;-65
2022/09/14 03:12:46;;;;;;;6.35;1.90;;;15.10;1.00;;;;;;4990703;28;20046;-64
2022/09/14 03:15:11;;;;;;;8.68;1.52;;;15.00;1.00;;;;;;4989901;28;20034;-64
2022/09/14 03:17:37;;;;;;;6.93;1.60;;;14.80;1.00;;;;;;4982912;28;20117;-64
2022/09/14 03:20:03;;;;;;;7.85;1.50;;;;;;;;;;4990735;28;20169;-64
2022/09/14 03:22:29;;;;;;;8.38;2.20;;;;;;;;;;4982075;28;20054;-64
2022/09/14 03:24:55;;;;;;;5.65;1.33;;;;;;;;;;4992282;28;20038;-64
2022/09/14 03:27:21;;;;;;;7.43;1.70;;;15.00;1.00;;;;;;4983779;28;20488;-64
2022/09/14 03:29:47;;;;;;;4.28;1.67;;;14.90;1.00;;;;;;4983088;28;20054;-65
2022/09/14 03:32:13;;;;;;;7.20;1.65;;;;;;;;;;4987443;28;20042;-65
2022/09/14 03:34:38;;;;;;;7.40;2.03;;;15.00;1.00;;;;;;4983521;28;20042;-65
2022/09/14 03:37:05;;;;;;;8.65;1.52;;;;;;;;;;4988041;28;20045;-65
2022/09/14 03:39:31;;;;;;;6.15;1.33;;;;;;;;;;4995263;28;20176;-65
2022/09/14 03:41:57;;;;;;;6.50;1.50;;;15.00;1.00;;;;;;4974770;28;20551;-65
2022/09/14 03:44:22;;;;;;;5.68;1.27;;;15.10;1.00;;;;;;5005776;28;20034;-65
2022/09/14 03:46:48;;;;;;;6.15;1.45;;;15.20;1.00;;;;;;4991741;28;20046;-65
2022/09/14 03:49:14;;;;;;;5.35;1.65;;;;;;;;;;4989736;28;20503;-64
2022/09/14 03:51:40;;;;;;;6.50;2.45;;;;;;;;;;4985334;28;20097;-65
2022/09/14 03:54:05;;;;;;;3.80;1.50;;;15.20;1.00;;;;;;4990756;28;20488;-65
2022/09/14 03:56:31;;;;;;;5.75;1.65;;;15.40;1.00;;;;;;4984111;28;20134;-64
2022/09/14 03:58:57;;;;;;;5.50;1.70;;;;;;;;;;4995183;28;20116;-64
2022/09/14 04:01:23;;;;;;;7.38;1.73;;;15.20;1.00;;;;;;4986116;28;20042;-63
2022/09/14 04:03:49;;;;;;;6.40;1.70;;;15.20;1.00;;;;;;4983545;28;20415;-63
2022/09/14 04:06:16;;;;;;;5.97;2.00;;;15.10;1.00;;;;;;4988329;28;20041;-64
2022/09/14 04:08:43;;;;;;;7.70;2.05;;;;;;;;;;4983966;28;20051;-64
2022/09/14 04:11:20;;;;;;;5.57;1.95;;;15.10;1.00;;;;;;4990853;28;20069;-63
2022/09/14 04:13:47;;;;;;;7.47;1.90;;;;;;;;;;4990798;28;20092;-64
2022/09/14 04:16:13;;;;;;;4.80;1.80;;;;;;;;;;4991490;28;20467;-63
2022/09/14 04:18:39;;;;;;;7.82;2.10;;;15.20;1.00;;;;;;4990016;28;20303;-64
2022/09/14 04:21:13;;;;;;;6.05;1.70;;;15.20;1.00;;;;;;4991084;28;20222;-63
2022/09/14 04:23:39;;;;;;;;;;;;;;;;;;4991081;28;20525;-64
2022/09/14 04:26:15;;;;;;;6.60;1.80;;;15.10;1.00;;;;;;4990730;28;20061;-64
2022/09/14 04:28:40;;;;;;;5.28;1.90;;;15.20;1.00;;;;;;4986849;28;20403;-64
2022/09/14 04:31:06;;;;;;;5.95;2.17;;;;;;;;;;4985402;28;20042;-64
2022/09/14 04:33:34;;;;;;;5.35;1.85;;;;;;;;;;4990626;28;20623;-64
2022/09/14 04:36:02;;;;;;;5.57;1.80;;;15.60;1.00;;;;;;4991245;28;20034;-64
2022/09/14 04:38:30;;;;;;;6.38;2.50;;;15.30;1.00;;;;;;4990385;28;20049;-64
2022/09/14 04:40:56;;;;;;;6.35;2.03;;;15.20;1.00;;;;;;4990708;28;20484;-64
2022/09/14 04:43:23;;;;;;;5.50;2.05;;;;;;;;;;4991229;28;20408;-64
2022/09/14 04:45:48;;;;;;;5.47;2.22;;;15.40;1.00;;;;;;4982586;28;20548;-63
2022/09/14 04:48:14;;;;;;;8.55;2.50;;;15.20;1.00;;;;;;4984422;28;20065;-64
2022/09/14 04:50:40;;;;;;;7.10;2.83;;;15.60;1.00;;;;;;4984220;28;20045;-63
2022/09/14 04:53:05;;;;;;;7.20;2.00;;;15.30;1.00;;;;;;4984177;28;20030;-63
2022/09/14 04:55:31;;;;;;;8.55;2.55;;;;;;;;;;4985070;28;20062;-64
2022/09/14 04:57:57;;;;;;;7.15;2.22;;;;;;;;;;4974861;28;20031;-63
2022/09/14 05:00:23;;;;;;;8.93;2.47;;;15.50;1.00;;;;;;4972810;28;20069;-63
2022/09/14 05:02:49;;;;;;;7.07;2.08;;;15.40;1.00;;;;;;4977758;28;20034;-64
2022/09/14 05:05:14;;;;;;;6.75;2.33;;;15.40;1.00;;;;;;4981899;28;20474;-64
2022/09/14 05:07:40;;;;;;;7.15;2.22;;;15.50;1.00;;;;;;4981955;28;20053;-64
2022/09/14 05:10:07;;;;;;;9.38;2.70;;;15.60;1.00;;;;;;4986796;28;20126;-64
2022/09/14 05:12:33;;;;;;;7.72;2.85;;;;;;;;;;4983949;28;20439;-64
2022/09/14 05:14:58;;;;;;;6.07;2.17;;;15.50;1.00;;;;;;4982078;28;20042;-64
2022/09/14 05:17:24;;;;;;;7.82;2.72;;;15.50;1.00;;;;;;4956088;28;20119;-64
2022/09/14 05:19:50;;;;;;;7.60;3.28;;;15.50;1.00;;;;;;4984113;28;20070;-64
2022/09/14 05:22:16;;;;;;;5.95;2.90;;;15.60;1.00;;;;;;4988960;28;20046;-64
2022/09/14 05:24:42;;;;;;;11.25;3.75;;;15.50;1.00;;;;;;4991507;28;20564;-63
2022/09/14 05:27:07;;;;;;;8.27;3.28;;;15.50;1.00;;;;;;4989653;28;20650;-64
2022/09/14 05:29:33;;;;;;;8.15;3.40;;;15.40;1.00;;;;;;4988470;28;20122;-64
2022/09/14 05:31:59;;;;;;;7.70;3.38;;;15.50;1.00;;;;;;4992124;28;20049;-64
2022/09/14 05:34:24;;;;;;;7.95;3.03;;;16.20;1.00;;;;;;4992902;28;20033;-64
2022/09/14 05:36:50;;;;;;;6.40;3.03;;;;;;;;;;4986074;28;20077;-64
2022/09/14 05:39:16;;;;;;;7.78;3.10;;;15.50;1.00;;;;;;4989122;28;20412;-63
2022/09/14 05:41:42;;;;;;;8.15;3.13;;;15.50;1.00;;;;;;4992776;28;20038;-64
2022/09/14 05:44:07;;;;;;;5.80;3.05;;;15.30;1.00;;;;;;4986809;28;20038;-65
2022/09/14 05:46:33;;;;;;;15.07;3.60;;;15.50;1.00;;;;;;4990188;28;20411;-64
2022/09/14 05:48:59;;;;;;;8.55;3.70;;;15.40;1.00;;;;;;4988715;28;20045;-64
2022/09/14 05:51:26;;;;;;;6.57;3.08;;;;;;;;;;4984776;28;20098;-64
2022/09/14 05:53:56;;;;;;;9.55;3.85;;;;;;;;;;4989040;28;20150;-64
2022/09/14 05:56:23;;;;;;;11.75;3.53;;;15.40;1.00;;;;;;4988920;28;20046;-62
2022/09/14 05:58:50;;;;;;;8.35;3.63;;;;;;;;;;4989534;28;20464;-63
2022/09/14 06:01:19;;;;;;;8.27;3.40;;;15.90;1.00;;;;;;4981682;28;20085;-63
2022/09/14 06:03:46;;;;;;;7.18;3.30;;;15.50;1.00;;;;;;4990701;28;20054;-62
2022/09/14 06:06:13;;;;;;;8.70;3.85;;;;;;;;;;4989710;28;20077;-62
2022/09/14 06:08:39;;;;;;;8.77;3.65;;;15.40;1.00;;;;;;4982705;28;20527;-62
2022/09/14 06:11:11;;;;;;;10.52;3.78;;;15.70;1.00;;;;;;4982658;28;20046;-62
2022/09/14 06:13:37;;;;;;;8.95;3.22;;;15.20;1.00;;;;;;4984312;28;20042;-62
2022/09/14 06:16:08;;;;;;;9.52;3.65;;;15.50;1.00;;;;;;4984099;28;20193;-62
2022/09/14 06:18:35;;;;;;;9.18;3.42;;;15.50;1.00;;;;;;4985487;28;20043;-62
2022/09/14 06:21:02;;;;;;;6.60;3.10;;;;;;;;;;4984661;28;20442;-63
2022/09/14 06:23:28;;;;;;;8.18;4.05;;;15.60;1.00;;;;;;4991011;28;20046;-62
2022/09/14 06:25:58;;;;;;;6.78;3.50;;;15.80;1.00;;;;;;4988560;28;20044;-62
2022/09/14 06:28:24;;;;;;;8.02;3.40;;;;;;;;;;4984492;28;20296;-62
2022/09/14 06:30:51;;;;;;;8.75;4.35;;;15.50;1.00;;;;;;4989054;28;20508;-62
2022/09/14 06:33:17;;;;;;;7.70;3.40;;;15.60;1.00;;;;;;4987325;28;20034;-62
2022/09/14 06:35:52;;;;;;;9.52;3.92;;;15.60;1.00;;;;;;4992665;28;20034;-63
2022/09/14 06:38:18;;;;;;;7.63;3.40;;;15.70;1.00;;;;;;4992117;28;20056;-66
2022/09/14 06:40:58;;;;;;;8.23;3.63;;;15.70;1.00;;;;;;4990773;28;20034;-63
2022/09/14 06:43:28;;;;;;;7.13;3.28;;;;;;;;;;4989001;28;20472;-63
2022/09/14 06:45:55;;;;;;;7.25;2.95;;;15.70;1.00;;;;;;4984058;28;20040;-62
2022/09/14 06:48:20;;;;;;;7.18;3.58;;;15.80;1.00;;;;;;4991741;28;20042;-63
2022/09/14 06:50:46;;;;;;;6.68;3.00;;;15.80;1.00;;;;;;4988749;28;20088;-63
2022/09/14 06:53:12;;;;;;;7.68;2.63;;;;;;;;;;4987758;28;20113;-63
2022/09/14 06:55:38;;;;;;;8.07;3.42;;;;;;;;;;4989401;28;20120;-63
2022/09/14 06:58:03;;;;;;;7.57;3.03;;;16.30;1.00;;;;;;4991932;28;20488;-63
2022/09/14 07:00:29;;;;;;;9.07;2.72;;;15.90;1.00;;;;;;4980148;28;20034;-63
2022/09/14 07:02:54;;;;;;;7.40;3.03;;;16.90;1.00;;;;;;4986044;28;20122;-63
2022/09/14 07:05:21;;;;;;;9.98;2.75;;;17.00;1.00;;;;;;4987756;28;20038;-63
2022/09/14 07:07:51;;;;;;;7.20;2.60;;;16.60;1.00;;;;;;4992627;28;20496;-63
2022/09/14 07:10:18;;;;;;;11.30;2.65;;;17.00;1.00;;;;;;4987757;28;20039;-62
2022/09/14 07:12:44;;;;;;;7.68;2.72;;;;;;;;;;4986146;28;20047;-63
2022/09/14 07:15:10;;;;;;;10.07;2.88;;;16.90;1.00;;;;;;4993726;28;20045;-63
2022/09/14 07:17:35;;;;;;;8.82;3.10;;;16.90;1.00;;;;;;4985781;28;20035;-63
2022/09/14 07:20:03;;;;;;;7.07;2.53;;;17.10;99.90;;;;;;4995578;28;20373;-62
2022/09/14 07:22:32;;;;;;;10.57;2.30;;;;;;;;;;4984250;28;20049;-63
2022/09/14 07:24:58;;;;;;;9.90;3.55;;;16.80;99.90;;;;;;4991573;28;20038;-62
2022/09/14 07:27:23;;;;;;;6.85;2.38;;;16.80;99.90;;;;;;4981679;28;20031;-62
2022/09/14 07:29:49;;;;;;;10.82;2.95;;;16.70;99.90;;;;;;4972705;28;20097;-62
2022/09/14 07:32:15;;;;;;;10.70;2.53;;;16.40;99.90;;;;;;4994142;28;20042;-61
2022/09/14 07:34:40;;;;;;;5.18;1.40;;;16.30;99.90;;;;;;4986088;28;20061;-63
2022/09/14 07:37:06;;;;;;;6.38;1.40;;;16.90;99.90;;;;;;4992407;28;20034;-62
2022/09/14 07:39:31;;;;;;;9.43;1.73;;;16.60;99.90;;;;;;4989182;28;20031;-62
2022/09/14 07:41:57;;;;;;;6.50;1.33;;;17.20;99.90;;;;;;4994946;28;20041;-62
2022/09/14 07:44:22;;;;;;;8.35;1.40;;;17.10;99.90;;;;;;4990822;28;20045;-62
2022/09/14 07:46:48;;;;;;;7.65;1.30;;;17.20;99.90;;;;;;4986762;28;20471;-62
2022/09/14 07:49:15;;;;;;;8.38;1.73;;;17.30;99.90;;;;;;4994316;28;20039;-62
2022/09/14 07:51:41;;;;;;;7.45;1.35;;;17.60;99.90;;;;;;4983434;28;20039;-62
2022/09/14 07:54:10;;;;;;;6.88;1.40;;;17.40;99.90;;;;;;4991707;28;20561;-61
2022/09/14 07:56:35;;;;;;;7.03;1.30;;;17.20;99.90;;;;;;4988519;28;20050;-62
2022/09/14 07:59:03;;;;;;;6.18;1.20;;;17.50;99.90;;;;;;4991661;28;20046;-62
2022/09/14 08:01:31;;;;;;;6.53;1.10;;;17.70;99.90;;;;;;4991628;28;20042;-62
2022/09/14 08:04:01;;;;;;;5.55;1.20;;;17.70;99.90;;;;;;4990907;28;20046;-62
2022/09/14 08:06:27;;;;;;;6.93;1.40;;;17.50;99.90;;;;;;4990409;28;20042;-62
2022/09/14 08:08:54;;;;;;;6.47;1.50;;;17.70;99.90;;;;;;4979062;28;20066;-62
2022/09/14 08:11:28;;;;;;;3.95;0.98;;;;;;;;;;4983776;28;20134;-62
2022/09/14 08:13:59;;;;;;;6.77;1.40;;;18.10;99.90;;;;;;4982261;28;20092;-62
2022/09/14 08:16:27;;;;;;;7.80;1.20;;;17.90;99.90;;;;;;4983935;28;20044;-62
2022/09/14 08:18:55;;;;;;;6.50;1.33;;;18.20;99.90;;;;;;4980339;28;20051;-62
2022/09/14 08:21:22;;;;;;;7.18;1.25;;;17.80;99.90;;;;;;5013571;23;20049;-86
2022/09/14 08:23:48;;;;;;;5.53;1.05;;;18.10;99.90;;;;;;4999324;28;20133;-87
2022/09/14 08:26:18;;;;;;;5.63;1.20;;;18.00;99.90;;;;;;5002147;28;20037;-86
2022/09/14 08:28:47;;;;;;;5.57;1.27;;;18.10;99.90;;;;;;4979362;28;20053;-87
2022/09/14 08:31:17;;;;;;;4.22;1.40;;;19.00;99.90;;;;;;4979369;28;20046;-87
2022/09/14 08:33:47;;;;;;;7.63;1.58;;;18.40;99.90;;;;;;4987353;28;20134;-87
2022/09/14 08:36:15;;;;;;;5.47;1.67;;;19.30;99.90;;;;;;4971737;28;20080;-86
2022/09/14 08:38:43;;;;;;;6.90;1.25;;;19.20;99.90;;;;;;4972525;28;20213;-87
2022/09/14 08:41:20;;;;;;;9.50;1.27;;;18.80;99.90;;;;;;4970968;28;20049;-88
2022/09/14 08:43:49;;;;;;;5.50;1.33;;;;;;;;;;4968363;28;20046;-88
2022/09/14 08:46:25;;;;;;;6.25;1.48;;;18.40;99.90;;;;;;4991197;28;20125;-85
2022/09/14 08:48:55;;;;;;;7.43;1.40;;;18.30;99.90;;;;;;4955327;28;20529;-87
2022/09/14 08:51:21;;;;;;;5.57;1.70;;;18.30;99.90;;;;;;4958300;28;20040;-86
2022/09/14 08:53:51;;;;;;;5.72;1.23;;;19.30;99.90;;;;;;4983644;28;20085;-87
2022/09/14 08:56:21;;;;;;;5.25;1.33;;;18.50;99.90;;;;;;4952534;28;20038;-87
2022/09/14 08:58:53;;;;;;;5.53;1.60;;;18.90;99.90;;;;;;4991585;28;20089;-86
2022/09/14 09:01:39;;;;;;;5.03;1.20;;;19.60;99.90;;;;;;4951748;28;20042;-85
2022/09/14 09:04:20;;;;;;;5.05;1.10;;;19.80;99.90;;;;;;4994674;28;20150;-86
2022/09/14 09:07:00;;;;;;;6.53;1.27;;;19.80;99.90;;;;;;4998435;28;20042;-91
2022/09/14 09:10:00;;;;;;;9.80;2.47;;;19.40;99.90;;;;;;5019709;28;20046;-89
2022/09/14 09:12:36;;;;;;;5.75;1.35;;;19.10;99.90;;;;;;4982952;28;20073;-87
2022/09/14 09:15:16;;;;;;;5.55;1.20;;;21.50;99.90;;;;;;4984991;28;20041;-85
2022/09/14 09:17:45;;;;;;;5.97;1.13;;;19.70;99.90;;;;;;4992462;28;20098;-88
2022/09/14 09:20:39;;;;;;;5.00;1.10;;;20.50;99.90;;;;;;4947364;28;20128;-85
2022/09/14 09:23:23;;;;;;;5.15;1.17;;;20.40;99.90;;;;;;4953888;28;20050;-86
2022/09/14 09:26:08;;;;;;;4.55;1.17;;;20.30;99.90;;;;;;4965776;28;20076;-86
2022/09/14 09:28:43;;;;;;;;;;;20.60;99.90;;;;;;4961815;28;20057;-86
2022/09/14 09:31:13;;;;;;;5.18;1.30;;;20.20;99.90;;;;;;4991795;28;19921;-86
2022/09/14 09:33:42;;;;;;;6.38;1.52;;;21.00;99.90;;;;;;4998666;28;20046;-86
2022/09/14 09:36:19;;;;;;;6.15;1.20;;;21.00;99.90;;;;;;4982265;28;20129;-85
2022/09/14 09:38:47;;;;;;;6.72;1.27;;;20.70;99.90;;;;;;4980083;28;20447;-88
2022/09/14 09:41:29;;;;;;;9.98;1.55;;;21.10;99.90;;;;;;4973550;28;20089;-87
2022/09/14 09:44:10;;;;;;;5.13;1.13;;;22.30;99.90;;;;;;4956431;28;20406;-87
2022/09/14 09:46:50;;;;;;;3.90;1.00;;;21.40;99.90;;;;;;4955190;28;20504;-91
2022/09/14 09:49:35;;;;;;;7.22;1.27;;;22.60;99.90;;;;;;4986332;28;20046;-89
2022/09/14 09:52:14;;;;;;;5.32;1.30;;;21.10;99.90;;;;;;4976517;28;20489;-88
2022/09/14 09:54:50;;;;;;;5.93;1.30;;;20.70;99.90;;;;;;4988774;28;20045;-88
2022/09/14 09:57:39;;;;;;;;;;;;;;;;;;;;;
2022/09/14 10:00:30;;;;;;;;;;;;;;;;;;;;;
2022/09/14 10:03:25;;;;;;;3.95;1.05;;;21.80;99.90;;;;;;4984884;28;20116;-88
2022/09/14 10:06:01;;;;;;;5.20;1.10;;;21.50;99.90;;;;;;4977735;28;20413;-88
2022/09/14 10:11:56;;;;;;;6.32;1.27;;;21.50;99.90;;;;;;4997384;28;20164;-88
2022/09/14 10:14:34;;;;;;;6.57;1.35;;;22.70;99.90;;;;;;4970426;28;20305;-88
2022/09/14 10:17:23;;;;;;;8.00;1.70;;;22.90;99.90;;;;;;4994636;28;20113;-89
2022/09/14 10:19:52;;;;;;;10.73;2.17;;;21.90;99.90;;;;;;4986725;28;20046;-89
2022/09/14 10:22:29;;;;;;;6.10;1.23;;;21.60;99.90;;;;;;4968663;28;20046;-89
2022/09/14 10:25:23;;;;;;;6.68;1.38;;;20.90;99.90;;;;;;4979680;28;20057;-89
2022/09/14 10:27:57;;;;;;;4.30;1.23;;;22.70;99.90;;;;;;4957407;28;20489;-88
2022/09/14 10:30:49;;;;;;;6.05;1.30;;;22.00;99.90;;;;;;4974583;28;20061;-89
2022/09/14 10:33:21;;;;;;;5.32;1.20;;;20.60;99.90;;;;;;4996635;28;20519;-88
2022/09/14 10:36:10;;;;;;;3.22;1.20;;;21.00;99.90;;;;;;4978228;28;20053;-89
2022/09/14 10:38:59;;;;;;;6.20;1.42;;;21.30;99.90;;;;;;4973825;28;20156;-88
2022/09/14 10:41:45;;;;;;;4.00;0.90;;;20.80;99.90;;;;;;4993045;28;20114;-89
2022/09/14 10:44:42;;;;;;;5.63;1.25;;;21.60;99.90;;;;;;5005770;28;20046;-88
2022/09/14 10:48:01;;;;;;;5.00;1.70;;;21.30;99.90;;;;;;4979411;28;20085;-88
2022/09/14 10:50:39;;;;;;;6.20;1.38;;;20.90;99.90;;;;;;4970279;28;20042;-89
2022/09/14 10:53:44;;;;;;;6.35;1.35;;;20.70;99.90;;;;;;4993343;28;20030;-88
2022/09/14 10:56:47;;;;;;;5.00;1.33;;;21.10;99.90;;;;;;4974004;28;20042;-90
2022/09/14 10:59:33;;;;;;;5.38;1.27;;;21.90;99.90;;;;;;4980731;28;20098;-88
2022/09/14 11:02:18;;;;;;;5.40;1.27;;;22.90;99.90;;;;;;4982603;28;20493;-89
2022/09/14 11:05:23;;;;;;;5.30;1.17;;;20.60;99.90;;;;;;4999375;28;20052;-90
2022/09/14 11:08:21;;;;;;;5.57;1.20;;;22.10;99.90;;;;;;4971850;28;20129;-89
2022/09/14 11:11:22;;;;;;;5.15;1.20;;;22.00;99.90;;;;;;4977319;28;20069;-88
2022/09/14 11:14:15;;;;;;;5.93;1.15;;;21.00;99.90;;;;;;4946167;28;20046;-89
2022/09/14 11:17:25;;;;;;;;;;;;;;;;;;;;;
2022/09/14 11:20:09;;;;;;;5.60;1.10;;;23.30;99.90;;;;;;4975203;28;20046;-89
2022/09/14 11:23:36;;;;;;;;;;;;;;;;;;;;;
2022/09/14 11:26:15;;;;;;;6.85;1.88;;;23.30;99.90;;;;;;4945509;28;20054;-89
2022/09/14 11:29:10;;;;;;;5.57;1.20;;;22.20;99.90;;;;;;4975633;28;20153;-89
2022/09/14 11:31:51;;;;;;;16.10;1.85;;;22.50;99.90;;;;;;4993018;28;20517;-88
2022/09/14 11:34:23;;;;;;;4.13;1.35;;;23.80;99.90;;;;;;4989838;28;20039;-90
2022/09/14 11:36:57;;;;;;;6.35;1.60;;;22.50;99.90;;;;;;4994684;28;20038;-88
2022/09/14 11:40:09;;;;;;;5.47;1.23;;;23.20;99.90;;;;;;4963918;28;20046;-88
2022/09/14 11:42:43;;;;;;;5.68;1.10;;;20.80;99.90;;;;;;4957376;28;20050;-90
2022/09/14 11:45:28;;;;;;;5.80;1.35;;;21.50;99.90;;;;;;4981087;28;20539;-89
2022/09/14 11:48:23;;;;;;;6.82;1.70;;;22.80;99.90;;;;;;4962056;28;20050;-88
2022/09/14 11:51:16;;;;;;;7.05;1.75;;;22.90;99.90;;;;;;4975060;28;20058;-92
2022/09/14 11:53:48;;;;;;;5.63;1.20;;;24.20;99.90;;;;;;4959616;28;20588;-89
2022/09/14 11:56:25;;;;;;;5.88;1.10;;;23.30;99.90;;;;;;4987999;28;20089;-92
2022/09/14 11:58:54;;;;;;;5.28;1.20;;;23.50;99.90;;;;;;4999447;28;20029;-91
2022/09/14 12:01:35;;;;;;;4.72;1.10;;;23.30;99.90;;;;;;4989949;28;20054;-90
2022/09/14 12:04:12;;;;;;;5.78;1.30;;;24.50;99.90;;;;;;4959888;28;20046;-88
2022/09/14 12:06:53;;;;;;;6.80;1.60;;;24.50;99.90;;;;;;4985700;28;20045;-89
2022/09/14 12:09:23;;;;;;;5.38;1.20;;;26.70;99.90;;;;;;5000560;28;20073;-90
2022/09/14 12:12:02;;;;;;;3.47;1.02;;;27.80;99.90;;;;;;4988235;28;20053;-88
2022/09/14 12:15:39;;;;;;;5.38;1.00;;;26.90;99.90;;;;;;4975767;28;20104;-92
2022/09/14 12:18:23;;;;;;;3.78;1.20;;;24.80;99.90;;;;;;4923419;29;20588;-88
2022/09/14 12:21:09;;;;;;;5.13;1.40;;;28.10;99.90;;;;;;4916451;29;20047;-91
2022/09/14 12:23:40;;;;;;;6.30;1.08;;;26.60;99.90;;;;;;4979531;28;20060;-90
2022/09/14 12:26:09;;;;;;;5.38;1.35;;;26.10;99.90;;;;;;4996721;28;20073;-89
2022/09/14 12:28:35;;;;;;;4.13;1.27;;;27.80;99.90;;;;;;4962239;28;20609;-89
2022/09/14 12:31:08;;;;;;;3.90;1.00;;;26.20;99.90;;;;;;4980414;28;20074;-90
2022/09/14 12:33:44;;;;;;;;;;;;;;;;;;;;;
2022/09/14 12:36:22;;;;;;;5.60;1.00;;;24.90;99.90;;;;;;4973191;28;20410;-90
2022/09/14 12:38:55;;;;;;;3.55;1.10;;;22.10;99.90;;;;;;4982766;28;20413;-89
2022/09/14 12:41:28;;;;;;;6.23;1.00;;;23.80;99.90;;;;;;4977036;28;20045;-91
2022/09/14 12:43:54;;;;;;;4.50;1.60;;;26.10;99.90;;;;;;4986578;28;20851;-89
2022/09/14 12:46:20;;;;;;;6.35;1.05;;;23.30;99.90;;;;;;4988120;28;20107;-90
2022/09/14 12:49:02;;;;;;;4.40;1.00;;;23.10;99.90;;;;;;4982333;28;20521;-89
2022/09/14 12:51:31;;;;;;;3.60;1.00;;;23.90;99.90;;;;;;4974501;28;20128;-89
2022/09/14 12:54:27;;;;;;;4.45;1.20;;;23.90;99.90;;;;;;4998644;28;20117;-89
2022/09/14 12:57:27;;;;;;;5.63;1.23;;;24.30;99.90;;;;;;4987358;28;20124;-89
2022/09/14 13:00:18;;;;;;;3.10;1.02;;;23.40;99.90;;;;;;5009105;28;20041;-89
2022/09/14 13:02:56;;;;;;;5.32;1.20;;;24.70;99.90;;;;;;4976801;28;20049;-89
2022/09/14 13:05:28;;;;;;;6.22;2.67;;;24.70;99.90;;;;;;4975982;28;20054;-89
2022/09/14 13:07:58;;;;;;;6.97;1.25;;;26.60;99.90;;;;;;4980640;28;20206;-89
2022/09/14 13:10:27;;;;;;;4.38;1.30;;;30.00;99.90;;;;;;4981212;28;20042;-90
2022/09/14 13:12:58;;;;;;;6.32;1.30;;;31.50;99.90;;;;;;4978310;28;20042;-90
2022/09/14 13:15:35;;;;;;;6.18;1.15;;;32.90;99.90;;;;;;4993903;28;20457;-91
2022/09/14 13:18:29;;;;;;;7.28;1.42;;;33.20;99.90;;;;;;4985039;28;20046;-90
2022/09/14 13:21:10;;;;;;;6.37;1.63;;;34.60;99.90;;;;;;4981435;28;20049;-91
2022/09/14 13:23:42;;;;;;;4.07;1.23;;;35.00;99.90;;;;;;4984093;28;20112;-89
2022/09/14 13:26:33;;;;;;;7.38;1.67;;;36.50;99.90;;;;;;5002143;28;20050;-89
2022/09/14 13:29:03;;;;;;;4.78;1.00;;;34.00;99.90;;;;;;4957308;28;20517;-90
2022/09/14 13:31:38;;;;;;;7.00;1.20;;;32.20;99.90;;;;;;4985052;28;20093;-92
2022/09/14 13:34:22;;;;;;;5.20;1.05;;;32.70;99.90;;;;;;5005702;28;20478;-90
2022/09/14 13:37:04;;;;;;;;;;;;;;;;;;;;;
2022/09/14 13:39:40;;;;;;;3.95;1.00;;;33.00;99.90;;;;;;4978195;28;20042;-90
2022/09/14 13:42:16;;;;;;;4.40;1.05;;;33.40;99.90;;;;;;4965897;28;20085;-92
2022/09/14 13:47:56;;;;;;;5.53;1.10;;;36.40;99.90;;;;;;4978365;28;20081;-90
2022/09/14 13:50:39;;;;;;;7.25;1.60;;;34.50;99.90;;;;;;5001522;28;20049;-91